createdAt,value
2022-09-12T00:00:26.245Z,23.1
2022-09-12T00:06:03.499Z,23.1
2022-09-12T00:11:44.410Z,23.1
2022-09-12T00:17:22.885Z,23.1
2022-09-12T00:23:01.283Z,23.1
2022-09-12T00:28:38.073Z,23.1
2022-09-12T00:33:59.436Z,23.1
2022-09-12T00:39:38.012Z,23.1
2022-09-12T00:45:14.949Z,23.1
2022-09-12T00:50:51.884Z,23.1
2022-09-12T00:56:29.965Z,23.1
2022-09-12T01:01:51.620Z,23.1
2022-09-12T01:07:28.769Z,23.1
2022-09-12T01:13:06.563Z,23.1
2022-09-12T01:18:43.687Z,23.1
2022-09-12T01:24:21.526Z,23.1
2022-09-12T01:29:59.087Z,23.1
2022-09-12T01:35:36.423Z,23.1
2022-09-12T01:41:12.723Z,23
2022-09-12T01:46:50.362Z,23.1
2022-09-12T01:52:12.603Z,23
2022-09-12T01:57:54.656Z,23
2022-09-12T02:03:32.905Z,23.1
2022-09-12T02:09:09.701Z,23
2022-09-12T02:14:46.802Z,23
2022-09-12T02:20:44.263Z,23
2022-09-12T02:26:23.403Z,23
2022-09-12T02:32:00.533Z,23
2022-09-12T02:37:38.258Z,23
2022-09-12T02:43:15.954Z,23
2022-09-12T02:48:53.211Z,23
2022-09-12T02:54:15.380Z,23
2022-09-12T02:59:52.342Z,23
2022-09-12T03:05:29.899Z,23
2022-09-12T03:11:07.338Z,23
2022-09-12T03:16:45.067Z,23
2022-09-12T03:22:05.899Z,22.9
2022-09-12T03:27:43.075Z,22.9
2022-09-12T03:33:20.130Z,22.9
2022-09-12T03:39:01.210Z,22.9
2022-09-12T03:44:38.539Z,22.9
2022-09-12T03:50:16.031Z,22.9
2022-09-12T03:55:52.514Z,22.9
2022-09-12T04:01:31.005Z,22.9
2022-09-12T04:07:08.769Z,22.9
2022-09-12T04:12:15.374Z,22.9
2022-09-12T04:17:53.915Z,22.9
2022-09-12T04:23:31.544Z,22.9
2022-09-12T04:28:53.868Z,22.9
2022-09-12T04:34:31.639Z,22.9
2022-09-12T04:40:08.642Z,22.5
2022-09-12T04:45:45.383Z,22.4
2022-09-12T04:51:26.613Z,22.4
2022-09-12T04:57:03.902Z,22.3
2022-09-12T05:02:40.456Z,22.3
2022-09-12T05:08:21.250Z,22.3
2022-09-12T05:14:28.905Z,22.2
2022-09-12T05:19:53.761Z,22.2
2022-09-12T05:25:32.106Z,22.3
2022-09-12T05:31:09.946Z,22.3
2022-09-12T05:36:46.606Z,22.3
2022-09-12T05:42:28.898Z,22.3
2022-09-12T05:48:06.961Z,22.4
2022-09-12T05:53:43.949Z,22.4
2022-09-12T05:59:21.764Z,22.4
2022-09-12T06:05:04.655Z,22.4
2022-09-12T06:10:41.900Z,22.4
2022-09-12T06:16:24.016Z,22.4
2022-09-12T06:22:05.836Z,22.4
2022-09-12T06:27:43.578Z,22.5
2022-09-12T06:33:25.453Z,22.4
2022-09-12T06:39:02.202Z,22.5
2022-09-12T06:44:44.756Z,22.5
2022-09-12T06:50:23.332Z,22.5
2022-09-12T06:56:01.944Z,22.5
2022-09-12T07:01:24.393Z,22.6
2022-09-12T07:07:02.245Z,22.6
2022-09-12T07:12:38.420Z,22.6
2022-09-12T07:18:17.051Z,22.6
2022-09-12T07:23:54.907Z,22.6
2022-09-12T07:29:58.822Z,22.6
2022-09-12T07:35:34.479Z,22.6
2022-09-12T07:40:57.282Z,22.6
2022-09-12T07:46:34.287Z,22.6
2022-09-12T07:52:12.229Z,22.6
2022-09-12T07:57:54.757Z,22.6
2022-09-12T08:03:56.683Z,22.6
2022-09-12T08:09:37.847Z,22.7
2022-09-12T08:15:19.382Z,22.7
2022-09-12T08:21:02.101Z,22.7
2022-09-12T08:26:24.405Z,22.7
2022-09-12T08:32:02.436Z,22.7
2022-09-12T08:37:40.359Z,22.7
2022-09-12T08:43:02.699Z,22.7
2022-09-12T08:48:44.984Z,22.7
2022-09-12T08:54:22.948Z,22.8
2022-09-12T09:00:00.776Z,22.8
2022-09-12T09:05:39.466Z,22.8
2022-09-12T09:11:16.701Z,22.8
2022-09-12T09:16:54.653Z,22.8
2022-09-12T09:22:21.374Z,22.8
2022-09-12T09:28:20.705Z,22.8
2022-09-12T09:33:57.594Z,22.8
2022-09-12T09:39:38.679Z,22.8
2022-09-12T09:44:45.991Z,22.8
2022-09-12T09:50:25.249Z,22.8
2022-09-12T09:55:32.598Z,22.8
2022-09-12T10:00:39.545Z,22.8
2022-09-12T10:06:06.259Z,22.8
2022-09-12T10:11:29.039Z,22.8
2022-09-12T10:17:07.985Z,22.8
2022-09-12T10:22:50.876Z,22.8
2022-09-12T10:28:33.074Z,22.8
2022-09-12T10:34:11.159Z,22.8
2022-09-12T10:39:33.415Z,22.8
2022-09-12T10:45:11.770Z,22.5
2022-09-12T10:50:57.040Z,22.4
2022-09-12T10:56:38.227Z,22.4
2022-09-12T11:02:20.200Z,22.3
2022-09-12T11:07:42.343Z,22.3
2022-09-12T11:13:23.999Z,22.3
2022-09-12T11:19:02.202Z,22.4
2022-09-12T11:24:29.060Z,22.4
2022-09-12T11:29:54.369Z,22.4
2022-09-12T11:35:22.455Z,22.4
2022-09-12T11:41:03.168Z,22.4
2022-09-12T11:46:41.228Z,22.4
2022-09-12T11:52:21.731Z,22.5
2022-09-12T11:57:58.898Z,22.4
2022-09-12T12:03:41.208Z,22.5
2022-09-12T12:09:08.683Z,22.5
2022-09-12T12:14:36.229Z,22.5
2022-09-12T12:20:23.073Z,22.5
2022-09-12T12:26:03.941Z,22.4
2022-09-12T12:31:42.160Z,22.4
2022-09-12T12:37:24.529Z,22.5
2022-09-12T12:43:07.566Z,22.5
2022-09-12T12:48:45.523Z,22.6
2022-09-12T12:54:27.283Z,22.5
2022-09-12T13:00:05.364Z,22.4
2022-09-12T13:05:49.191Z,22.4
2022-09-12T13:11:11.688Z,22.5
2022-09-12T13:16:48.933Z,22.5
2022-09-12T13:22:55.158Z,22.5
2022-09-12T13:28:32.512Z,22.5
2022-09-12T13:34:14.627Z,22.5
2022-09-12T13:39:51.798Z,22.4
2022-09-12T13:45:29.790Z,22.3
2022-09-12T13:51:07.353Z,22.3
2022-09-12T13:56:45.066Z,22.4
2022-09-12T14:02:22.960Z,22.4
2022-09-12T14:08:01.058Z,22.5
2022-09-12T14:13:39.957Z,22.5
2022-09-12T14:19:19.773Z,22.5
2022-09-12T14:25:01.988Z,22.5
2022-09-12T14:30:39.634Z,22.5
2022-09-12T14:36:17.467Z,22.4
2022-09-12T14:41:40.161Z,22.4
2022-09-12T14:47:17.670Z,22.4
2022-09-12T14:52:58.564Z,22.3
2022-09-12T14:58:36.261Z,22.3
2022-09-12T15:04:15.140Z,22.2
2022-09-12T15:09:53.097Z,22.1
2022-09-12T15:15:30.538Z,22
2022-09-12T15:20:54.884Z,22
2022-09-12T15:26:33.455Z,21.9
2022-09-12T15:32:11.724Z,22
2022-09-12T15:37:49.925Z,22
2022-09-12T15:43:31.785Z,21.9
2022-09-12T15:49:13.770Z,21.9
2022-09-12T15:54:41.143Z,21.9
2022-09-12T16:00:36.778Z,21.9
2022-09-12T16:06:05.080Z,21.9
2022-09-12T16:11:46.576Z,21.9
2022-09-12T16:17:07.900Z,21.9
2022-09-12T16:22:48.014Z,21.9
2022-09-12T16:28:26.221Z,21.9
2022-09-12T16:34:04.398Z,21.9
2022-09-12T16:39:42.346Z,21.8
2022-09-12T16:45:21.072Z,21.8
2022-09-12T16:51:04.248Z,21.8
2022-09-12T16:56:42.752Z,21.9
2022-09-12T17:02:23.648Z,22
2022-09-12T17:08:05.323Z,22.1
2022-09-12T17:13:46.800Z,22.1
2022-09-12T17:19:21.386Z,22.1
2022-09-12T17:24:49.415Z,22.1
2022-09-12T17:30:12.036Z,22.1
2022-09-12T17:35:49.865Z,22.2
2022-09-12T17:41:33.621Z,22.2
2022-09-12T17:47:14.814Z,22.2
2022-09-12T17:53:01.096Z,22.3
2022-09-12T17:58:24.919Z,22.3
2022-09-12T18:04:04.044Z,22.3
2022-09-12T18:09:42.135Z,22.3
2022-09-12T18:15:21.581Z,22.3
2022-09-12T18:20:45.517Z,22.2
2022-09-12T18:26:23.051Z,22.1
2022-09-12T18:32:16.621Z,22.2
2022-09-12T18:37:39.919Z,22.2
2022-09-12T18:43:21.320Z,22.2
2022-09-12T18:48:59.420Z,22.2
2022-09-12T18:54:39.824Z,22.2
2022-09-12T19:00:17.472Z,22.1
2022-09-12T19:05:55.409Z,22.1
2022-09-12T19:11:37.544Z,22.1
2022-09-12T19:17:00.820Z,22.1
2022-09-12T19:22:28.184Z,22
2022-09-12T19:27:51.207Z,22
2022-09-12T19:33:15.464Z,21.9
2022-09-12T19:38:59.000Z,21.9
2022-09-12T19:44:37.645Z,21.9
2022-09-12T19:50:15.868Z,21.9
2022-09-12T19:55:58.671Z,22.1
2022-09-12T20:01:42.076Z,22.1
2022-09-12T20:07:22.754Z,22.1
2022-09-12T20:13:00.529Z,22.2
2022-09-12T20:18:38.674Z,22.2
2022-09-12T20:24:19.773Z,22.2
2022-09-12T20:29:57.244Z,22.3
2022-09-12T20:35:20.515Z,22.3
2022-09-12T20:40:58.583Z,22.3
2022-09-12T20:46:39.677Z,22.3
2022-09-12T20:52:17.680Z,22.3
2022-09-12T20:57:55.245Z,22.3
2022-09-12T21:03:32.994Z,22.3
2022-09-12T21:09:11.820Z,22.3
2022-09-12T21:14:49.501Z,22.3
2022-09-12T21:20:29.185Z,22.3
2022-09-12T21:26:10.206Z,22.3
2022-09-12T21:31:36.848Z,22.3
2022-09-12T21:37:18.974Z,22.4
2022-09-12T21:42:57.332Z,22.4
2022-09-12T21:48:35.618Z,22.4
2022-09-12T21:54:13.289Z,22.4
2022-09-12T21:59:36.124Z,22.4
2022-09-12T22:04:57.860Z,22.4
2022-09-12T22:10:36.930Z,22.4
2022-09-12T22:16:43.538Z,22.4
2022-09-12T22:22:21.223Z,22.4
2022-09-12T22:27:57.546Z,22.4
2022-09-12T22:33:36.036Z,22.4
2022-09-12T22:39:17.147Z,22.4
2022-09-12T22:44:54.233Z,22.4
2022-09-12T22:50:36.927Z,22.4
2022-09-12T22:56:14.552Z,22.4
2022-09-12T23:01:36.448Z,22.4
2022-09-12T23:06:59.203Z,22.4
2022-09-12T23:12:22.727Z,22.4
2022-09-12T23:17:28.445Z,22.4
2022-09-12T23:22:50.736Z,22.4
2022-09-12T23:28:12.226Z,22.4
2022-09-12T23:33:49.639Z,22.4
2022-09-12T23:38:57.474Z,22.4
2022-09-12T23:44:34.849Z,22.4
2022-09-12T23:49:56.458Z,22.4
2022-09-12T23:55:35.927Z,22.4
